createdAt,value
2019-04-01T00:00:38.280Z,99941.30
2019-04-01T00:03:05.387Z,99941.13
2019-04-01T00:05:31.652Z,99956.27
2019-04-01T00:07:57.874Z,99941.89
2019-04-01T00:10:24.508Z,99944.22
2019-04-01T00:12:50.687Z,99940.71
2019-04-01T00:15:16.978Z,99942.09
2019-04-01T00:17:43.750Z,99938.72
2019-04-01T00:20:10.116Z,99946.56
2019-04-01T00:22:36.258Z,99950.69
2019-04-01T00:25:03.057Z,99943.81
2019-04-01T00:27:29.239Z,99945.80
2019-04-01T00:29:55.406Z,99955.06
2019-04-01T00:32:22.007Z,99949.98
2019-04-01T00:34:48.192Z,99952.14
2019-04-01T00:37:14.523Z,99949.39
2019-04-01T00:39:41.107Z,99946.44
2019-04-01T00:42:18.241Z,99948.23
2019-04-01T00:44:44.419Z,99950.80
2019-04-01T00:47:10.672Z,99954.19
2019-04-01T00:49:36.872Z,99951.30
2019-04-01T00:52:03.139Z,99947.05
2019-04-01T00:54:29.427Z,99943.92
2019-04-01T00:56:55.595Z,99944.38
2019-04-01T00:59:22.207Z,99940.08
2019-04-01T01:01:48.477Z,99950.23
2019-04-01T01:04:14.744Z,99950.23
2019-04-01T01:06:41.276Z,99943.47
2019-04-01T01:09:07.412Z,99943.47
2019-04-01T01:11:34.428Z,99948.18
2019-04-01T01:14:00.580Z,99945.88
2019-04-01T01:16:27.891Z,99952.20
2019-04-01T01:18:54.009Z,99946.94
2019-04-01T01:21:20.287Z,99953.06
2019-04-01T01:23:46.940Z,99946.05
2019-04-01T01:26:13.091Z,99958.80
2019-04-01T01:28:39.444Z,99958.80
2019-04-01T01:31:06.083Z,99944.70
2019-04-01T01:33:32.244Z,99954.13
2019-04-01T01:35:58.386Z,99944.77
2019-04-01T01:38:24.902Z,99948.55
2019-04-01T01:40:51.058Z,99938.38
2019-04-01T01:43:17.222Z,99945.27
2019-04-01T01:45:43.793Z,99941.80
2019-04-01T01:48:10.069Z,99935.16
2019-04-01T01:50:36.503Z,99932.87
2019-04-01T01:53:03.073Z,99935.69
2019-04-01T01:55:29.288Z,99938.64
2019-04-01T01:57:57.222Z,99929.30
2019-04-01T02:00:26.600Z,99929.30
2019-04-01T02:02:54.786Z,99938.77
2019-04-01T02:05:23.197Z,99938.77
2019-04-01T02:07:49.880Z,99946.43
2019-04-01T02:10:16.063Z,99938.61
2019-04-01T02:12:42.243Z,99933.91
2019-04-01T02:15:08.950Z,99937.88
2019-04-01T02:17:35.127Z,99937.88
2019-04-01T02:20:01.283Z,99945.59
2019-04-01T02:22:27.466Z,99945.59
2019-04-01T02:24:53.712Z,99937.16
2019-04-01T02:27:19.894Z,99930.93
2019-04-01T02:29:46.487Z,99936.27
2019-04-01T02:32:12.685Z,99929.19
2019-04-01T02:34:38.866Z,99932.19
2019-04-01T02:37:05.037Z,99935.52
2019-04-01T02:39:31.609Z,99927.51
2019-04-01T02:41:57.879Z,99929.48
2019-04-01T02:44:24.064Z,99929.48
2019-04-01T02:46:50.531Z,99929.48
2019-04-01T02:49:16.772Z,99924.84
2019-04-01T02:51:42.921Z,99924.84
2019-04-01T02:54:09.107Z,99930.37
2019-04-01T02:56:35.235Z,99930.37
2019-04-01T02:59:01.694Z,99938.81
2019-04-01T03:01:27.833Z,99924.48
2019-04-01T03:03:54.394Z,99924.89
2019-04-01T03:06:20.578Z,99928.83
2019-04-01T03:08:46.739Z,99932.16
2019-04-01T03:11:13.214Z,99927.86
2019-04-01T03:13:39.411Z,99936.70
2019-04-01T03:16:05.662Z,99931.83
2019-04-01T03:18:32.271Z,99933.40
2019-04-01T03:20:58.452Z,99926.97
2019-04-01T03:23:24.747Z,99926.97
2019-04-01T03:25:51.290Z,99929.14
2019-04-01T03:28:17.450Z,99920.93
2019-04-01T03:30:43.590Z,99923.50
2019-04-01T03:33:09.869Z,99927.45
2019-04-01T03:35:36.053Z,99927.45
2019-04-01T03:38:02.306Z,99934.89
2019-04-01T03:40:28.530Z,99924.72
2019-04-01T03:42:55.750Z,99935.70
2019-04-01T03:45:21.918Z,99926.70
2019-04-01T03:47:48.329Z,99922.02
2019-04-01T03:50:14.845Z,99921.27
2019-04-01T03:52:41.203Z,99920.48
2019-04-01T03:55:07.359Z,99928.53
2019-04-01T03:57:34.113Z,99929.30
2019-04-01T04:00:00.526Z,99927.35
2019-04-01T04:02:26.932Z,99920.50
2019-04-01T04:04:53.512Z,99927.97
2019-04-01T04:07:19.667Z,99925.80
2019-04-01T04:09:45.752Z,99924.04
2019-04-01T04:12:12.351Z,99936.38
2019-04-01T04:14:39.574Z,99926.79
2019-04-01T04:17:05.713Z,99931.52
2019-04-01T04:19:31.942Z,99934.45
2019-04-01T04:21:58.102Z,99931.31
2019-04-01T04:24:24.351Z,99939.17
2019-04-01T04:26:50.780Z,99948.55
2019-04-01T04:29:16.917Z,99929.19
2019-04-01T04:31:43.092Z,99928.22
2019-04-01T04:34:09.815Z,99933.30
2019-04-01T04:36:36.420Z,99937.02
2019-04-01T04:39:05.010Z,99935.83
2019-04-01T04:41:31.779Z,99931.94
2019-04-01T04:43:58.034Z,99930.78
2019-04-01T04:46:24.353Z,99939.00
2019-04-01T04:48:50.884Z,99933.13
2019-04-01T04:51:17.090Z,99932.34
2019-04-01T04:53:43.242Z,99942.33
2019-04-01T04:56:09.930Z,99942.54
2019-04-01T04:58:36.185Z,99934.71
2019-04-01T05:01:02.425Z,99938.23
2019-04-01T05:03:29.085Z,99939.61
2019-04-01T05:05:55.367Z,99942.95
2019-04-01T05:08:21.621Z,99942.55
2019-04-01T05:10:48.250Z,99937.07
2019-04-01T05:13:14.407Z,99951.73
2019-04-01T05:15:40.776Z,99947.04
2019-04-01T05:18:07.374Z,99944.70
2019-04-01T05:20:34.317Z,99955.65
2019-04-01T05:23:01.987Z,99949.78
2019-04-01T05:25:31.860Z,99947.63
2019-04-01T05:27:57.624Z,99943.52
2019-04-01T05:30:23.962Z,99950.36
2019-04-01T05:32:53.131Z,99958.19
2019-04-01T05:35:19.528Z,99953.50
2019-04-01T05:37:45.667Z,99962.50
2019-04-01T05:40:12.424Z,99958.77
2019-04-01T05:42:38.545Z,99726.83
2019-04-01T05:45:05.822Z,99955.64
2019-04-01T05:47:38.128Z,99967.57
2019-04-01T05:50:05.216Z,99966.02
2019-04-01T05:52:31.513Z,99964.66
2019-04-01T05:54:58.066Z,99958.57
2019-04-01T05:57:24.222Z,99971.48
2019-04-01T05:59:50.357Z,99963.27
2019-04-01T06:02:16.876Z,99969.53
2019-04-01T06:04:43.026Z,99961.11
2019-04-01T06:07:09.182Z,99959.16
2019-04-01T06:09:35.995Z,99968.14
2019-04-01T06:12:02.133Z,99959.12
2019-04-01T06:14:28.447Z,99959.11
2019-04-01T06:16:54.582Z,99959.11
2019-04-01T06:19:20.835Z,99965.38
2019-04-01T06:21:47.151Z,99963.97
2019-04-01T06:24:13.715Z,99970.81
2019-04-01T06:26:40.076Z,99971.95
2019-04-01T06:29:06.343Z,99967.42
2019-04-01T06:31:32.474Z,99967.42
2019-04-01T06:33:58.643Z,99973.87
2019-04-01T06:36:24.814Z,99969.35
2019-04-01T06:38:51.264Z,99974.78
2019-04-01T06:41:17.433Z,99974.78
2019-04-01T06:43:43.893Z,99980.41
2019-04-01T06:46:10.414Z,99974.66
2019-04-01T06:48:36.580Z,99969.64
2019-04-01T06:51:02.791Z,99969.64
2019-04-01T06:53:29.414Z,99966.23
2019-04-01T06:55:55.651Z,99972.10
2019-04-01T06:58:21.834Z,99973.38
2019-04-01T07:00:48.638Z,99973.38
2019-04-01T07:03:18.356Z,99969.94
2019-04-01T07:05:43.143Z,99967.39
2019-04-01T07:08:09.710Z,99967.39
2019-04-01T07:10:36.265Z,99965.41
2019-04-01T07:13:02.445Z,99965.41
2019-04-01T07:15:28.887Z,99981.95
2019-04-01T07:17:55.033Z,99962.11
2019-04-01T07:20:21.210Z,99958.86
2019-04-01T07:22:47.962Z,99962.84
2019-04-01T07:25:14.136Z,99958.77
2019-04-01T07:27:40.669Z,99956.56
2019-04-01T07:30:07.305Z,99946.32
2019-04-01T07:32:33.476Z,99944.28
2019-04-01T07:34:59.643Z,99947.29
2019-04-01T07:37:25.797Z,99958.60
2019-04-01T07:39:52.053Z,99962.22
2019-04-01T07:42:18.284Z,99960.59
2019-04-01T07:44:44.457Z,99964.55
2019-04-01T07:47:10.748Z,99958.28
2019-04-01T07:49:36.968Z,99973.11
2019-04-01T07:52:03.391Z,99961.63
2019-04-01T07:54:29.842Z,99956.89
2019-04-01T07:56:56.034Z,99958.79
2019-04-01T07:59:22.156Z,99957.59
2019-04-01T08:01:48.285Z,99965.21
2019-04-01T08:04:14.457Z,99966.06
2019-04-01T08:06:40.748Z,99979.36
2019-04-01T08:09:07.437Z,99979.86
2019-04-01T08:11:33.860Z,99964.42
2019-04-01T08:14:00.329Z,99959.83
2019-04-01T08:16:26.481Z,99906.64
2019-04-01T08:18:52.645Z,99956.46
2019-04-01T08:21:18.802Z,99955.44
2019-04-01T08:23:45.596Z,99750.59
2019-04-01T08:26:11.743Z,99955.77
2019-04-01T08:28:37.873Z,99914.91
2019-04-01T08:31:04.764Z,99948.48
2019-04-01T08:33:31.014Z,99953.45
2019-04-01T08:35:57.180Z,99947.57
2019-04-01T08:38:23.733Z,99945.63
2019-04-01T08:40:49.870Z,99943.78
2019-04-01T08:43:16.041Z,99941.50
2019-04-01T08:45:42.589Z,99953.36
2019-04-01T08:48:08.778Z,99939.28
2019-04-01T08:50:35.137Z,99945.01
2019-04-01T08:56:24.361Z,99928.69
2019-04-01T08:58:50.509Z,99959.95
2019-04-01T09:01:16.749Z,99927.67
2019-04-01T09:03:43.248Z,99926.41
2019-04-01T09:06:09.513Z,99920.69
2019-04-01T09:08:35.920Z,99914.36
2019-04-01T09:11:02.496Z,99922.90
2019-04-01T09:13:28.871Z,99924.34
2019-04-01T09:15:55.623Z,99923.16
2019-04-01T09:18:22.195Z,99914.23
2019-04-01T09:20:48.321Z,99915.50
2019-04-01T09:23:14.415Z,99906.44
2019-04-01T09:25:41.010Z,99915.30
2019-04-01T09:28:07.464Z,99908.36
2019-04-01T09:30:33.848Z,99917.36
2019-04-01T09:33:00.098Z,99911.78
2019-04-01T09:35:26.213Z,99897.85
2019-04-01T09:37:52.363Z,99905.47
2019-04-01T09:40:18.882Z,99896.61
2019-04-01T09:42:45.067Z,99893.05
2019-04-01T09:45:11.609Z,99892.88
2019-04-01T09:47:37.793Z,99896.58
2019-04-01T09:50:05.082Z,99886.80
2019-04-01T09:52:31.701Z,99888.66
2019-04-01T09:54:58.159Z,99882.62
2019-04-01T09:57:24.456Z,99882.11
2019-04-01T09:59:51.057Z,99877.73
2019-04-01T10:02:31.289Z,99874.76
2019-04-01T10:04:45.510Z,99874.14
2019-04-01T10:07:11.704Z,99879.89
2019-04-01T10:09:37.814Z,99875.94
2019-04-01T10:12:04.090Z,99863.61
2019-04-01T10:14:31.044Z,99860.00
2019-04-01T10:16:57.278Z,99864.20
2019-04-01T10:19:23.559Z,99862.55
2019-04-01T10:21:50.106Z,99860.75
2019-04-01T10:24:16.248Z,99863.10
2019-04-01T10:26:42.709Z,99852.05
2019-04-01T10:29:09.234Z,99858.73
2019-04-01T10:31:35.360Z,99857.26
2019-04-01T10:34:01.520Z,99848.78
2019-04-01T10:36:27.927Z,99843.34
2019-04-01T10:38:54.084Z,99845.86
2019-04-01T10:41:20.275Z,99843.06
2019-04-01T10:43:46.933Z,99842.70
2019-04-01T10:46:13.195Z,99836.88
2019-04-01T10:48:39.692Z,99836.97
2019-04-01T10:51:06.339Z,99827.27
2019-04-01T10:53:32.748Z,99822.70
2019-04-01T10:55:59.009Z,99821.47
2019-04-01T10:58:25.199Z,99826.37
2019-04-01T11:00:51.583Z,99820.01
2019-04-01T11:03:17.824Z,99821.47
2019-04-01T11:05:44.776Z,99820.26
2019-04-01T11:08:11.401Z,99816.98
2019-04-01T11:10:37.631Z,99813.72
2019-04-01T11:13:04.191Z,99800.69
2019-04-01T11:15:30.356Z,99806.03
2019-04-01T11:17:56.580Z,99800.25
2019-04-01T11:20:22.827Z,99796.38
2019-04-01T11:22:49.142Z,99805.59
2019-04-01T11:25:15.691Z,99801.48
2019-04-01T11:27:41.848Z,99623.30
2019-04-01T11:30:08.549Z,99796.13
2019-04-01T11:32:34.736Z,99724.03
2019-04-01T11:35:00.901Z,99781.44
2019-04-01T11:37:27.143Z,99776.89
2019-04-01T11:39:53.806Z,99767.84
2019-04-01T11:42:20.032Z,99775.41
2019-04-01T11:44:46.242Z,99776.69
2019-04-01T11:47:12.869Z,99767.30
2019-04-01T11:49:39.007Z,99762.67
2019-04-01T11:52:05.196Z,99753.56
2019-04-01T11:54:31.694Z,99756.09
2019-04-01T11:56:57.913Z,99745.58
2019-04-01T11:59:24.274Z,99746.77
2019-04-01T12:01:50.798Z,99741.37
2019-04-01T12:04:16.958Z,99732.28
2019-04-01T12:06:43.094Z,99728.42
2019-04-01T12:09:09.761Z,99730.92
2019-04-01T12:11:36.101Z,99697.55
2019-04-01T12:14:05.108Z,99720.25
2019-04-01T12:16:31.304Z,99719.77
2019-04-01T12:18:57.434Z,99725.38
2019-04-01T12:21:23.605Z,99719.34
2019-04-01T12:23:49.736Z,99714.72
2019-04-01T12:26:17.523Z,99704.50
2019-04-01T12:28:43.988Z,99701.67
2019-04-01T12:31:12.847Z,99718.17
2019-04-01T12:33:38.972Z,99703.01
2019-04-01T12:36:05.539Z,99699.91
2019-04-01T12:38:31.761Z,99698.65
2019-04-01T12:40:58.107Z,99698.04
2019-04-01T12:43:24.235Z,99701.60
2019-04-01T12:45:50.891Z,99687.74
2019-04-01T12:48:17.061Z,99692.35
2019-04-01T12:50:43.415Z,99683.53
2019-04-01T12:53:09.987Z,99684.17
2019-04-01T12:55:37.884Z,99682.89
2019-04-01T12:58:04.278Z,99684.07
2019-04-01T13:00:31.043Z,99676.91
2019-04-01T13:02:57.206Z,99668.86
2019-04-01T13:05:23.416Z,99666.89
2019-04-01T13:07:52.333Z,99653.05
2019-04-01T13:10:18.144Z,99665.77
2019-04-01T13:12:46.309Z,99495.98
2019-04-01T13:15:13.628Z,99639.31
2019-04-01T13:17:40.274Z,99644.36
2019-04-01T13:20:06.578Z,99649.45
2019-04-01T13:22:33.346Z,99636.70
2019-04-01T13:25:01.540Z,99636.83
2019-04-01T13:27:30.823Z,99627.57
2019-04-01T13:29:57.586Z,99619.03
2019-04-01T13:32:23.752Z,99624.77
2019-04-01T13:34:50.155Z,99626.63
2019-04-01T13:37:18.289Z,99615.33
2019-04-01T13:39:45.627Z,99615.62
2019-04-01T13:42:12.831Z,99612.71
2019-04-01T13:44:40.618Z,99462.55
2019-04-01T13:47:07.070Z,99609.06
2019-04-01T13:49:34.683Z,99608.69
2019-04-01T13:52:03.667Z,99609.41
2019-04-01T13:54:30.514Z,99606.36
2019-04-01T13:56:57.088Z,99601.47
2019-04-01T13:59:24.027Z,99592.02
2019-04-01T14:01:50.346Z,99598.50
2019-04-01T14:04:19.805Z,99587.25
2019-04-01T14:06:47.171Z,99587.31
2019-04-01T14:09:13.629Z,99587.29
2019-04-01T14:11:43.397Z,99432.70
2019-04-01T14:14:10.214Z,99576.92
2019-04-01T14:16:44.072Z,99573.97
2019-04-01T14:19:14.485Z,99569.22
2019-04-01T14:21:43.978Z,99573.35
2019-04-01T14:24:12.914Z,99563.77
2019-04-01T14:26:41.097Z,99568.05
2019-04-01T14:29:07.696Z,99559.60
2019-04-01T14:31:34.656Z,99561.13
2019-04-01T14:34:01.840Z,99556.78
2019-04-01T14:36:29.955Z,99547.71
2019-04-01T14:38:56.164Z,99547.80
2019-04-01T14:41:26.538Z,99547.58
2019-04-01T14:43:55.291Z,99532.48
2019-04-01T14:46:22.090Z,99540.11
2019-04-01T14:48:49.580Z,99544.44
2019-04-01T14:51:18.401Z,99534.95
2019-04-01T14:53:44.664Z,99530.83
2019-04-01T14:56:11.343Z,99525.23
2019-04-01T14:58:37.642Z,99528.03
2019-04-01T15:01:04.043Z,99521.54
2019-04-01T15:03:30.662Z,99524.04
2019-04-01T15:05:57.046Z,99522.38
2019-04-01T15:08:23.178Z,99520.53
2019-04-01T15:10:49.781Z,99515.11
2019-04-01T15:13:16.125Z,99507.28
2019-04-01T15:15:43.046Z,99513.31
2019-04-01T15:18:10.066Z,99505.66
2019-04-01T15:20:36.865Z,99503.90
2019-04-01T15:23:04.541Z,99502.41
2019-04-01T15:25:30.941Z,99505.36
2019-04-01T15:27:58.414Z,99494.45
2019-04-01T15:30:27.868Z,99493.89
2019-04-01T15:32:54.820Z,99493.17
2019-04-01T15:35:21.175Z,99485.61
2019-04-01T15:37:47.355Z,99484.22
2019-04-01T15:40:13.778Z,99486.45
2019-04-01T15:42:40.727Z,99479.47
2019-04-01T15:45:08.376Z,99470.61
2019-04-01T15:47:34.957Z,99472.48
2019-04-01T15:50:09.917Z,99464.80
2019-04-01T15:52:36.646Z,99469.11
2019-04-01T15:55:05.154Z,99460.02
2019-04-01T15:57:31.450Z,99462.23
2019-04-01T16:00:00.027Z,99464.16
2019-04-01T16:02:26.500Z,99454.88
2019-04-01T16:04:52.937Z,99459.06
2019-04-01T16:07:22.428Z,99455.20
2019-04-01T16:09:47.711Z,99270.91
2019-04-01T16:12:13.901Z,99455.02
2019-04-01T16:14:40.241Z,99449.81
2019-04-01T16:17:07.275Z,99447.27
2019-04-01T16:19:34.044Z,99441.45
2019-04-01T16:22:00.651Z,99441.80
2019-04-01T16:24:27.635Z,99433.27
2019-04-01T16:26:57.188Z,99437.80
2019-04-01T16:29:23.335Z,99437.98
2019-04-01T16:31:49.884Z,99432.91
2019-04-01T16:34:16.007Z,99445.51
2019-04-01T16:36:42.167Z,99432.71
2019-04-01T16:39:09.900Z,99432.89
2019-04-01T16:41:36.163Z,99431.59
2019-04-01T16:44:02.537Z,99422.05
2019-04-01T16:46:28.753Z,99425.02
2019-04-01T16:48:54.986Z,99430.95
2019-04-01T16:51:21.279Z,99425.10
2019-04-01T16:53:48.161Z,99423.93
2019-04-01T16:56:14.439Z,99434.77
2019-04-01T16:58:40.644Z,99422.89
2019-04-01T17:01:07.050Z,99427.08
2019-04-01T17:03:33.259Z,99417.97
2019-04-01T17:05:59.482Z,99412.09
2019-04-01T17:08:25.814Z,99418.28
2019-04-01T17:10:52.008Z,99416.28
2019-04-01T17:13:18.939Z,99419.98
2019-04-01T17:15:45.089Z,99422.94
2019-04-01T17:18:11.310Z,99427.94
2019-04-01T17:20:37.479Z,99425.22
2019-04-01T17:23:03.690Z,99425.27
2019-04-01T17:25:29.920Z,99426.72
2019-04-01T17:27:56.429Z,99418.70
2019-04-01T17:30:22.558Z,99422.30
2019-04-01T17:32:48.915Z,99424.83
2019-04-01T17:35:15.700Z,99412.94
2019-04-01T17:37:41.851Z,99425.34
2019-04-01T17:40:08.238Z,99419.80
2019-04-01T17:42:34.924Z,99415.03
2019-04-01T17:45:07.816Z,99259.33
2019-04-01T17:47:35.215Z,99424.66
2019-04-01T17:50:02.380Z,99426.94
2019-04-01T17:52:29.800Z,99428.67
2019-04-01T17:55:04.678Z,99210.63
2019-04-01T17:57:31.074Z,99421.42
2019-04-01T17:59:57.385Z,99423.91
2019-04-01T18:02:24.438Z,99424.98
2019-04-01T18:04:51.166Z,99422.05
2019-04-01T18:07:17.468Z,99420.53
2019-04-01T18:09:43.795Z,99414.35
2019-04-01T18:12:10.639Z,99431.31
2019-04-01T18:14:36.794Z,99426.23
2019-04-01T18:17:02.958Z,99426.20
2019-04-01T18:19:29.695Z,99425.11
2019-04-01T18:21:56.063Z,99432.20
2019-04-01T18:24:23.150Z,99446.36
2019-04-01T18:26:49.595Z,99437.11
2019-04-01T18:29:15.845Z,99436.00
2019-04-01T18:31:41.962Z,99431.37
2019-04-01T18:34:08.489Z,99438.73
2019-04-01T18:36:35.028Z,99212.92
2019-04-01T18:39:03.889Z,99440.23
2019-04-01T18:41:29.505Z,99444.52
2019-04-01T18:43:57.078Z,99442.80
2019-04-01T18:46:23.837Z,99454.91
2019-04-01T18:48:50.067Z,99451.05
2019-04-01T18:51:16.352Z,99445.77
2019-04-01T18:53:42.583Z,99448.95
2019-04-01T18:56:09.036Z,99447.36
2019-04-01T18:58:35.492Z,99443.92
2019-04-01T19:01:04.371Z,99447.73
2019-04-01T19:03:30.206Z,99456.91
2019-04-01T19:05:59.840Z,99446.41
2019-04-01T19:08:26.067Z,99447.61
2019-04-01T19:11:02.101Z,99439.41
2019-04-01T19:13:23.139Z,99441.81
2019-04-01T19:15:50.602Z,99431.59
2019-04-01T19:18:17.539Z,99438.16
2019-04-01T19:20:55.644Z,99429.76
2019-04-01T19:23:12.555Z,99432.95
2019-04-01T19:25:38.803Z,99431.92
2019-04-01T19:28:05.542Z,99427.08
2019-04-01T19:30:32.747Z,99434.70
2019-04-01T19:32:59.635Z,99429.52
2019-04-01T19:35:27.011Z,99424.21
2019-04-01T19:37:53.180Z,99423.84
2019-04-01T19:40:22.971Z,99420.09
2019-04-01T19:42:49.492Z,99418.16
2019-04-01T19:45:15.849Z,99418.38
2019-04-01T19:47:42.083Z,99410.33
2019-04-01T19:50:08.842Z,99413.47
2019-04-01T19:52:35.167Z,99409.02
2019-04-01T19:55:03.182Z,99408.00
2019-04-01T19:57:29.590Z,99407.62
2019-04-01T19:59:55.962Z,99411.88
2019-04-01T20:02:22.256Z,99406.63
2019-04-01T20:04:48.406Z,99393.41
2019-04-01T20:07:15.259Z,99396.18
2019-04-01T20:09:42.634Z,99394.64
2019-04-01T20:12:08.965Z,99388.15
2019-04-01T20:14:35.251Z,99399.55
2019-04-01T20:17:02.264Z,99389.72
2019-04-01T20:19:28.842Z,99383.85
2019-04-01T20:21:57.177Z,99383.36
2019-04-01T20:24:23.931Z,99384.70
2019-04-01T20:26:50.103Z,99377.89
2019-04-01T20:29:16.468Z,99379.04
2019-04-01T20:31:42.751Z,99378.98
2019-04-01T20:34:19.078Z,99383.58
2019-04-01T20:36:37.110Z,99378.59
2019-04-01T20:39:06.278Z,99381.62
2019-04-01T20:41:32.585Z,99380.03
2019-04-01T20:43:58.758Z,99370.13
2019-04-01T20:46:25.365Z,99364.70
2019-04-01T20:48:51.526Z,99355.30
2019-04-01T20:51:18.003Z,99360.30
2019-04-01T20:53:44.562Z,99358.16
2019-04-01T20:56:10.926Z,99347.97
2019-04-01T20:58:37.254Z,99349.20
2019-04-01T21:01:04.182Z,99350.08
2019-04-01T21:03:30.692Z,99346.20
2019-04-01T21:05:57.241Z,99343.53
2019-04-01T21:08:24.050Z,99347.18
2019-04-01T21:10:50.177Z,99343.92
2019-04-01T21:13:16.657Z,99342.05
2019-04-01T21:15:43.368Z,99337.41
2019-04-01T21:18:09.937Z,99340.70
2019-04-01T21:20:36.167Z,99342.44
2019-04-01T21:23:02.346Z,99337.14
2019-04-01T21:25:30.108Z,99329.56
2019-04-01T21:27:56.478Z,99333.80
2019-04-01T21:30:23.072Z,99333.73
2019-04-01T21:32:49.376Z,99339.94
2019-04-01T21:35:15.533Z,99337.11
2019-04-01T21:37:42.046Z,99331.69
2019-04-01T21:40:08.177Z,99330.06
2019-04-01T21:42:34.741Z,99324.13
2019-04-01T21:45:02.334Z,99329.67
2019-04-01T21:47:28.573Z,99319.45
2019-04-01T21:49:54.736Z,99315.66
2019-04-01T21:52:20.984Z,99319.97
2019-04-01T21:54:47.179Z,99311.28
2019-04-01T21:57:13.374Z,99314.75
2019-04-01T21:59:39.983Z,99304.84
2019-04-01T22:02:06.559Z,99303.20
2019-04-01T22:04:32.720Z,99301.41
2019-04-01T22:06:59.524Z,99295.03
2019-04-01T22:09:25.661Z,99295.83
2019-04-01T22:11:51.837Z,99290.41
2019-04-01T22:14:18.444Z,99293.08
2019-04-01T22:16:44.630Z,99284.71
2019-04-01T22:19:11.301Z,99281.36
2019-04-01T22:21:39.441Z,99273.11
2019-04-01T22:24:06.560Z,99273.11
2019-04-01T22:26:32.703Z,99266.66
2019-04-01T22:28:59.291Z,99261.83
2019-04-01T22:31:25.477Z,99258.99
2019-04-01T22:33:51.613Z,99259.70
2019-04-01T22:36:30.233Z,99260.38
2019-04-01T22:38:46.395Z,99256.41
2019-04-01T22:41:12.656Z,99253.81
2019-04-01T22:43:39.394Z,99249.33
2019-04-01T22:46:05.685Z,99239.45
2019-04-01T22:48:31.986Z,99245.39
2019-04-01T22:50:58.519Z,99248.66
2019-04-01T22:53:24.676Z,99242.52
2019-04-01T22:55:50.853Z,99243.81
2019-04-01T22:58:17.394Z,99238.98
2019-04-01T23:00:43.672Z,99233.74
2019-04-01T23:03:11.274Z,99234.25
2019-04-01T23:05:37.910Z,99232.59
2019-04-01T23:08:04.207Z,99229.33
2019-04-01T23:10:30.467Z,99222.87
2019-04-01T23:12:56.690Z,99226.22
2019-04-01T23:15:22.930Z,99217.09
2019-04-01T23:17:49.106Z,99211.75
2019-04-01T23:20:15.653Z,99211.73
2019-04-01T23:22:41.779Z,99212.84
2019-04-01T23:25:08.002Z,99204.25
2019-04-01T23:27:34.455Z,99204.48
2019-04-01T23:30:00.756Z,99202.85
2019-04-01T23:32:26.924Z,99200.34
2019-04-01T23:34:53.594Z,99190.36
2019-04-01T23:37:19.730Z,99193.70
2019-04-01T23:39:45.901Z,99193.70
2019-04-01T23:42:12.478Z,99181.28
2019-04-01T23:44:38.619Z,99187.40
2019-04-01T23:47:04.794Z,99180.08
2019-04-01T23:49:31.216Z,99176.35
2019-04-01T23:51:57.404Z,99173.44
2019-04-01T23:54:23.544Z,99176.19
2019-04-01T23:56:49.698Z,99170.70
2019-04-01T23:59:15.876Z,99170.53
